Main page
METAR-TAF:

METAR-TAF

Airports :

Dehradun Airport

Dehradun, India

latitude: 30-11-23N, longitude: 78-10-49E, elevation: 558 m

Current weather observation

The report was made 23 minutes ago, at 05:00 UTC
Wind 3 kt from the West/Southwest
Temperature 28°C
Humidity 40%
Pressure 1011 hPa
Visibility: 6000 m
Few clouds at a height of 4000 ft

METAR: VIDN 200500Z 25003KT 6000 FEW040 28/13 Q1011

Time: 10:53 (05:23 UTC)

Forecast

The report was made 6 hours and 23 minutes ago, at 23:00 UTC
Forecast valid from 20 at 00 UTC to 20 at 09 UTC
Wind 4 kt from the North/Northeast
Visibility: 2000 m
Few clouds at a height of 10000 ft
mist
Becoming
from 20 at 05 UTC to 20 at 07 UTC
Wind 6 kt from the West/Northwest
Visibility: 4000 m
Scattered clouds at a height of 10000 ft
haze

TAF: VIDN 192300Z 2000/2009 03004KT 2000 BR FEW100 BECMG 2005/2007 29006KT 4000 HZ SCT100

Weather observations and forecasts of more than 4000 airports (METAR and TAF reports).

The available stations are represented by yellow and red dots on the map.

Hover mouse over dot to see the name of the station.

Then click to see weather observations and forecasts.

To change the map : click on the green buttons with a black cross to zoom in, on the green button with a dash to zoom out, or on the green arrows for adjacent maps.


METAR-TAF: